No particular awareness of the weather is required.    There are no Weather-warnings


Meteo18 Weather Cam more information Meteo18 Weather Cam


Thunder radar more information blitzortung!


Rain radar more information rain snow radar


Visit our other weather sites:

Template documentation
and downloads

And another site



Weather Underground History page Text

Daily Summary for February 20, 2017 Units:  Both    English   Metric
« Previous Day
Next Day »
Daily Weekly Monthly Yearly Custom
  High: Low: Average:
Temperature: TemperatureC °F /  -17.8 °C -0.1 °F /  -17.8 °C 5.4 °F /  -14.8 °C
Dew Point: DewpointC °F /  -17.8 °C -0.8 °F /  -18.2 °C 4.5 °F /  -15.3 °C
Humidity: Humidity % 87 % 94 %
Wind Speed: WindSpeedKMH mph /  0 km/h - 5.3 mph /  8.5 km/h
Wind Gust: WindSpeedGustKMH mph /  0 km/h - -
Wind:- - SW
Pressure: PressurehPa in /  0 hPa 1024.9 in /  34703.1 hPa -
Precipitation: 0.3 in /  7.62 mm    
Historical Graphs
 
 
Tabular Data for February 20, 2017
Time Temperature Dew Point Pressure Wind Wind Speed Wind Gust Humidity Rainfall Rate (Hourly)
TemperatureC °F /  -17.8 °C DewpointC °F /  -17.8 °C PressurehPa in /  0 hPa Calm     Humidity % HourlyPrecipMM in /  0 mm
00:02 3.3 °F /  -15.9 °C 1.3 °F /  -17.1 °C 1027.3 in /  34784.4 hPa Calm   1.6 mph /  2.6 km/h 87 % 0.0 in /  0 mm
00:07 3.3 °F /  -15.9 °C 1.3 °F /  -17.1 °C 1027.3 in /  34784.4 hPa Calm     87 % 0.0 in /  0 mm
00:12 3.1 °F /  -16.1 °C 1.1 °F /  -17.2 °C 1027.3 in /  34784.4 hPa Calm     87 % 0.0 in /  0 mm
00:17 2.8 °F /  -16.2 °C 0.9 °F /  -17.3 °C 1027.3 in /  34784.4 hPa Calm     87 % 0.0 in /  0 mm
00:22 2.8 °F /  -16.2 °C 1.2 °F /  -17.1 °C 1027.3 in /  34784.4 hPa Calm     89 % 0.0 in /  0 mm
00:32 2.7 °F /  -16.3 °C 0.9 °F /  -17.3 °C 1027.3 in /  34784.4 hPa Calm     88 % 0.0 in /  0 mm
00:42 2.3 °F /  -16.5 °C 0.7 °F /  -17.4 °C 1027.0 in /  34774.2 hPa Calm     89 % 0.0 in /  0 mm
00:47 2.3 °F /  -16.5 °C 0.8 °F /  -17.3 °C 1027.0 in /  34774.2 hPa Calm     90 % 0.0 in /  0 mm
00:52 2.3 °F /  -16.5 °C 0.8 °F /  -17.3 °C 1027.0 in /  34774.2 hPa Calm     90 % 0.0 in /  0 mm
00:57 2.4 °F /  -16.4 °C 1.1 °F /  -17.2 °C 1027.0 in /  34774.2 hPa Calm     91 % 0.0 in /  0 mm
01:02 2.4 °F /  -16.4 °C 0.9 °F /  -17.3 °C 1027.0 in /  34774.2 hPa Calm     90 % 0.0 in /  0 mm
01:12 2.2 °F /  -16.6 °C 0.7 °F /  -17.4 °C 1027.0 in /  34774.2 hPa Calm     90 % 0.0 in /  0 mm
01:17 2.2 °F /  -16.6 °C 0.9 °F /  -17.3 °C 1027.0 in /  34774.2 hPa Calm     91 % 0.0 in /  0 mm
01:22 2.3 °F /  -16.5 °C 1.0 °F /  -17.2 °C 1027.0 in /  34774.2 hPa Calm     91 % 0.0 in /  0 mm
01:27 2.2 °F /  -16.6 °C 0.9 °F /  -17.3 °C 1027.0 in /  34774.2 hPa Calm     91 % 0.0 in /  0 mm
01:32 2.3 °F /  -16.5 °C 1.0 °F /  -17.2 °C 1027.3 in /  34784.4 hPa Calm     91 % 0.0 in /  0 mm
01:37 2.5 °F /  -16.4 °C 1.2 °F /  -17.1 °C 1027.0 in /  34774.2 hPa Calm     91 % 0.0 in /  0 mm
01:42 2.3 °F /  -16.5 °C 0.8 °F /  -17.3 °C 1027.0 in /  34774.2 hPa Calm   1.6 mph /  2.6 km/h 90 % 0.0 in /  0 mm
01:47 2.2 °F /  -16.6 °C 0.9 °F /  -17.3 °C 1027.3 in /  34784.4 hPa Calm   1.6 mph /  2.6 km/h 91 % 0.0 in /  0 mm
01:57 1.9 °F /  -16.7 °C 0.4 °F /  -17.6 °C 1027.0 in /  34774.2 hPa Calm   1.6 mph /  2.6 km/h 90 % 0.0 in /  0 mm
02:02 1.8 °F /  -16.8 °C 0.5 °F /  -17.5 °C 1027.0 in /  34774.2 hPa Calm   1.6 mph /  2.6 km/h 91 % 0.0 in /  0 mm
02:07 1.6 °F /  -16.9 °C 0.3 °F /  -17.6 °C 1027.0 in /  34774.2 hPa Calm   1.6 mph /  2.6 km/h 91 % 0.0 in /  0 mm
02:12 1.4 °F /  -17 °C 0.2 °F /  -17.7 °C 1027.0 in /  34774.2 hPa Calm   1.6 mph /  2.6 km/h 92 % 0.0 in /  0 mm
02:17 1.3 °F /  -17.1 °C 0.1 °F /  -17.7 °C 1027.0 in /  34774.2 hPa Calm   1.6 mph /  2.6 km/h 92 % 0.0 in /  0 mm
02:22 1.3 °F /  -17.1 °C 0.1 °F /  -17.7 °C 1027.0 in /  34774.2 hPa Calm   1.6 mph /  2.6 km/h 92 % 0.0 in /  0 mm
02:27 1.3 °F /  -17.1 °C 0.1 °F /  -17.7 °C 1027.0 in /  34774.2 hPa SSE 1.6 mph /  2.6 km/h   92 % 0.0 in /  0 mm
02:32 1.2 °F /  -17.1 °C 0.0 °F /  -17.8 °C 1027.0 in /  34774.2 hPa Calm   1.6 mph /  2.6 km/h 92 % 0.0 in /  0 mm
02:37 1.1 °F /  -17.2 °C -0.1 °F /  -17.8 °C 1027.0 in /  34774.2 hPa South 1.6 mph /  2.6 km/h 1.6 mph /  2.6 km/h 92 % 0.0 in /  0 mm
02:42 1.1 °F /  -17.2 °C 0.1 °F /  -17.7 °C 1027.0 in /  34774.2 hPa Calm   3.2 mph /  5.1 km/h 93 % 0.0 in /  0 mm
02:47 1.1 °F /  -17.2 °C 0.1 °F /  -17.7 °C 1027.0 in /  34774.2 hPa Calm   3.2 mph /  5.1 km/h 93 % 0.0 in /  0 mm
02:52 0.9 °F /  -17.3 °C -0.1 °F /  -17.8 °C 1027.0 in /  34774.2 hPa Calm   3.2 mph /  5.1 km/h 93 % 0.0 in /  0 mm
02:57 0.9 °F /  -17.3 °C -0.1 °F /  -17.8 °C 1027.0 in /  34774.2 hPa SSW 1.6 mph /  2.6 km/h 3.2 mph /  5.1 km/h 93 % 0.0 in /  0 mm
03:02 0.9 °F /  -17.3 °C -0.1 °F /  -17.8 °C 1027.0 in /  34774.2 hPa Calm   3.2 mph /  5.1 km/h 93 % 0.0 in /  0 mm
03:07 0.8 °F /  -17.3 °C -0.2 °F /  -17.9 °C 1027.0 in /  34774.2 hPa Calm   3.2 mph /  5.1 km/h 93 % 0.0 in /  0 mm
03:12 0.8 °F /  -17.3 °C -0.2 °F /  -17.9 °C 1027.0 in /  34774.2 hPa Calm   3.2 mph /  5.1 km/h 93 % 0.0 in /  0 mm
03:17 0.8 °F /  -17.3 °C -0.2 °F /  -17.9 °C 1027.0 in /  34774.2 hPa SSW 1.6 mph /  2.6 km/h 3.2 mph /  5.1 km/h 93 % 0.0 in /  0 mm
03:22 0.8 °F /  -17.3 °C -0.1 °F /  -17.8 °C 1026.6 in /  34760.7 hPa Calm   1.6 mph /  2.6 km/h 94 % 0.0 in /  0 mm
03:27 0.8 °F /  -17.3 °C -0.1 °F /  -17.8 °C 1026.6 in /  34760.7 hPa Calm   1.6 mph /  2.6 km/h 94 % 0.0 in /  0 mm
03:32 0.9 °F /  -17.3 °C 0.0 °F /  -17.8 °C 1026.6 in /  34760.7 hPa Calm   1.6 mph /  2.6 km/h 94 % 0.0 in /  0 mm
03:37 0.9 °F /  -17.3 °C 0.0 °F /  -17.8 °C 1026.6 in /  34760.7 hPa Calm   1.6 mph /  2.6 km/h 94 % 0.0 in /  0 mm
03:42 0.8 °F /  -17.3 °C -0.1 °F /  -17.8 °C 1026.6 in /  34760.7 hPa Calm   1.6 mph /  2.6 km/h 94 % 0.0 in /  0 mm
03:47 0.7 °F /  -17.4 °C -0.2 °F /  -17.9 °C 1026.6 in /  34760.7 hPa Calm     94 % 0.0 in /  0 mm
03:52 0.7 °F /  -17.4 °C -0.2 °F /  -17.9 °C 1026.6 in /  34760.7 hPa Calm     94 % 0.0 in /  0 mm
03:57 0.6 °F /  -17.4 °C -0.3 °F /  -17.9 °C 1026.6 in /  34760.7 hPa Calm     94 % 0.0 in /  0 mm
04:02 0.5 °F /  -17.5 °C -0.4 °F /  -18 °C 1026.6 in /  34760.7 hPa Calm     94 % 0.0 in /  0 mm
04:07 0.5 °F /  -17.5 °C -0.4 °F /  -18 °C 1026.3 in /  34750.5 hPa Calm     94 % 0.0 in /  0 mm
04:12 0.4 °F /  -17.6 °C -0.5 °F /  -18.1 °C 1026.6 in /  34760.7 hPa Calm     94 % 0.0 in /  0 mm
04:17 0.3 °F /  -17.6 °C -0.6 °F /  -18.1 °C 1026.6 in /  34760.7 hPa Calm     94 % 0.0 in /  0 mm
04:22 0.4 °F /  -17.6 °C -0.3 °F /  -17.9 °C 1026.6 in /  34760.7 hPa Calm     95 % 0.0 in /  0 mm
04:32 0.4 °F /  -17.6 °C -0.3 °F /  -17.9 °C 1026.6 in /  34760.7 hPa Calm     95 % 0.0 in /  0 mm
04:37 0.4 °F /  -17.6 °C -0.3 °F /  -17.9 °C 1026.6 in /  34760.7 hPa Calm     95 % 0.0 in /  0 mm
04:42 0.4 °F /  -17.6 °C -0.3 °F /  -17.9 °C 1026.6 in /  34760.7 hPa Calm     95 % 0.0 in /  0 mm
04:52 0.3 °F /  -17.6 °C -0.4 °F /  -18 °C 1026.6 in /  34760.7 hPa Calm     95 % 0.0 in /  0 mm
04:57 0.2 °F /  -17.7 °C -0.5 °F /  -18.1 °C 1026.6 in /  34760.7 hPa Calm     95 % 0.0 in /  0 mm
05:02 0.1 °F /  -17.7 °C -0.6 °F /  -18.1 °C 1026.6 in /  34760.7 hPa Calm     95 % 0.0 in /  0 mm
05:12 -0.1 °F /  -17.8 °C -0.8 °F /  -18.2 °C 1026.6 in /  34760.7 hPa Calm     95 % 0.0 in /  0 mm
05:17 -0.1 °F /  -17.8 °C -0.8 °F /  -18.2 °C 1026.3 in /  34750.5 hPa Calm     95 % 0.0 in /  0 mm
05:22 0.0 °F /  -17.8 °C -0.7 °F /  -18.2 °C 1026.3 in /  34750.5 hPa Calm     95 % 0.0 in /  0 mm
05:32 0.1 °F /  -17.7 °C -0.6 °F /  -18.1 °C 1026.3 in /  34750.5 hPa Calm     95 % 0.0 in /  0 mm
05:42 0.3 °F /  -17.6 °C -0.4 °F /  -18 °C 1026.3 in /  34750.5 hPa Calm     95 % 0.0 in /  0 mm
05:47 0.3 °F /  -17.6 °C -0.4 °F /  -18 °C 1026.6 in /  34760.7 hPa Calm     95 % 0.0 in /  0 mm
05:52 0.4 °F /  -17.6 °C -0.3 °F /  -17.9 °C 1026.6 in /  34760.7 hPa Calm     95 % 0.0 in /  0 mm
05:57 0.5 °F /  -17.5 °C -0.2 °F /  -17.9 °C 1026.6 in /  34760.7 hPa Calm     95 % 0.0 in /  0 mm
06:02 0.6 °F /  -17.4 °C -0.1 °F /  -17.8 °C 1026.3 in /  34750.5 hPa Calm     95 % 0.0 in /  0 mm
06:12 0.7 °F /  -17.4 °C 0.0 °F /  -17.8 °C 1026.3 in /  34750.5 hPa Calm     95 % 0.0 in /  0 mm
06:17 0.7 °F /  -17.4 °C 0.0 °F /  -17.8 °C 1026.3 in /  34750.5 hPa Calm     95 % 0.0 in /  0 mm
06:22 0.7 °F /  -17.4 °C 0.0 °F /  -17.8 °C 1026.3 in /  34750.5 hPa Calm     95 % 0.0 in /  0 mm
06:32 0.8 °F /  -17.3 °C 0.1 °F /  -17.7 °C 1026.3 in /  34750.5 hPa Calm     95 % 0.0 in /  0 mm
06:37 0.9 °F /  -17.3 °C 0.2 °F /  -17.7 °C 1026.6 in /  34760.7 hPa Calm     95 % 0.0 in /  0 mm
06:42 0.9 °F /  -17.3 °C 0.2 °F /  -17.7 °C 1026.6 in /  34760.7 hPa Calm     95 % 0.0 in /  0 mm
06:47 1.0 °F /  -17.2 °C 0.3 °F /  -17.6 °C 1026.6 in /  34760.7 hPa Calm     95 % 0.0 in /  0 mm
06:52 1.1 °F /  -17.2 °C 0.4 °F /  -17.6 °C 1026.6 in /  34760.7 hPa Calm     95 % 0.0 in /  0 mm
07:02 1.3 °F /  -17.1 °C 0.6 °F /  -17.4 °C 1026.6 in /  34760.7 hPa Calm     95 % 0.0 in /  0 mm
07:12 1.4 °F /  -17 °C 0.7 °F /  -17.4 °C 1026.6 in /  34760.7 hPa Calm     95 % 0.0 in /  0 mm
07:17 1.4 °F /  -17 °C 0.7 °F /  -17.4 °C 1026.6 in /  34760.7 hPa Calm     95 % 0.0 in /  0 mm
07:22 1.5 °F /  -16.9 °C 0.8 °F /  -17.3 °C 1026.3 in /  34750.5 hPa SE 1.6 mph /  2.6 km/h   95 % 0.0 in /  0 mm
07:32 1.5 °F /  -16.9 °C 0.8 °F /  -17.3 °C 1026.3 in /  34750.5 hPa Calm     95 % 0.0 in /  0 mm
07:42 1.4 °F /  -17 °C 0.7 °F /  -17.4 °C 1026.3 in /  34750.5 hPa Calm   3.2 mph /  5.1 km/h 95 % 0.0 in /  0 mm
07:47 1.4 °F /  -17 °C 0.7 °F /  -17.4 °C 1026.3 in /  34750.5 hPa Calm   1.6 mph /  2.6 km/h 95 % 0.0 in /  0 mm
07:52 1.4 °F /  -17 °C 0.7 °F /  -17.4 °C 1026.3 in /  34750.5 hPa SSE 1.6 mph /  2.6 km/h 1.6 mph /  2.6 km/h 95 % 0.0 in /  0 mm
07:57 1.5 °F /  -16.9 °C 0.8 °F /  -17.3 °C 1026.3 in /  34750.5 hPa Calm   3.2 mph /  5.1 km/h 95 % 0.0 in /  0 mm
08:02 1.6 °F /  -16.9 °C 0.9 °F /  -17.3 °C 1026.3 in /  34750.5 hPa Calm   3.2 mph /  5.1 km/h 95 % 0.0 in /  0 mm
08:12 1.6 °F /  -16.9 °C 0.9 °F /  -17.3 °C 1026.6 in /  34760.7 hPa Calm   3.2 mph /  5.1 km/h 95 % 0.0 in /  0 mm
08:17 1.6 °F /  -16.9 °C 0.9 °F /  -17.3 °C 1026.6 in /  34760.7 hPa Calm   3.2 mph /  5.1 km/h 95 % 0.0 in /  0 mm
08:22 1.6 °F /  -16.9 °C 0.9 °F /  -17.3 °C 1026.6 in /  34760.7 hPa SSE 1.6 mph /  2.6 km/h 3.2 mph /  5.1 km/h 95 % 0.0 in /  0 mm
08:32 1.7 °F /  -16.8 °C 1.0 °F /  -17.2 °C 1026.6 in /  34760.7 hPa South 1.6 mph /  2.6 km/h 3.2 mph /  5.1 km/h 95 % 0.0 in /  0 mm
08:37 1.8 °F /  -16.8 °C 1.1 °F /  -17.2 °C 1027.0 in /  34774.2 hPa South 3.2 mph /  5.1 km/h 4.8 mph /  7.7 km/h 95 % 0.0 in /  0 mm
08:42 2.1 °F /  -16.6 °C 1.4 °F /  -17 °C 1027.0 in /  34774.2 hPa SSE 1.6 mph /  2.6 km/h 4.8 mph /  7.7 km/h 95 % 0.0 in /  0 mm
08:52 2.5 °F /  -16.4 °C 1.6 °F /  -16.9 °C 1027.0 in /  34774.2 hPa SSE 1.6 mph /  2.6 km/h 4.8 mph /  7.7 km/h 94 % 0.0 in /  0 mm
08:57 2.7 °F /  -16.3 °C 1.7 °F /  -16.8 °C 1027.3 in /  34784.4 hPa SW 3.2 mph /  5.1 km/h 4.8 mph /  7.7 km/h 93 % 0.0 in /  0 mm
09:02 2.9 °F /  -16.2 °C 1.7 °F /  -16.8 °C 1027.0 in /  34774.2 hPa South 3.2 mph /  5.1 km/h 4.8 mph /  7.7 km/h 92 % 0.0 in /  0 mm
09:12 3.5 °F /  -15.8 °C 2.2 °F /  -16.6 °C 1027.0 in /  34774.2 hPa SSW 3.2 mph /  5.1 km/h 4.8 mph /  7.7 km/h 91 % 0.0 in /  0 mm
09:22 4.1 °F /  -15.5 °C 2.6 °F /  -16.3 °C 1027.0 in /  34774.2 hPa South 3.2 mph /  5.1 km/h 6.4 mph /  10.3 km/h 90 % 0.0 in /  0 mm
09:32 4.4 °F /  -15.3 °C 2.7 °F /  -16.3 °C 1027.0 in /  34774.2 hPa South 1.6 mph /  2.6 km/h 6.4 mph /  10.3 km/h 89 % 0.0 in /  0 mm
09:42 4.7 °F /  -15.2 °C 2.9 °F /  -16.2 °C 1027.3 in /  34784.4 hPa SW 11.3 mph /  18.2 km/h 11.3 mph /  18.2 km/h 88 % 0.0 in /  0 mm
09:47 4.8 °F /  -15.1 °C 2.8 °F /  -16.2 °C 1027.0 in /  34774.2 hPa SSW 6.4 mph /  10.3 km/h 11.3 mph /  18.2 km/h 87 % 0.0 in /  0 mm
09:52 5.0 °F /  -15 °C 3.2 °F /  -16 °C 1027.0 in /  34774.2 hPa SSW 6.4 mph /  10.3 km/h 11.3 mph /  18.2 km/h 88 % 0.0 in /  0 mm
09:57 5.3 °F /  -14.8 °C 3.6 °F /  -15.8 °C 1027.0 in /  34774.2 hPa SW 6.4 mph /  10.3 km/h 12.9 mph /  20.8 km/h 89 % 0.0 in /  0 mm
10:02 5.4 °F /  -14.8 °C 3.6 °F /  -15.8 °C 1027.0 in /  34774.2 hPa SSW 4.8 mph /  7.7 km/h 12.9 mph /  20.8 km/h 88 % 0.0 in /  0 mm
10:12 5.1 °F /  -14.9 °C 3.3 °F /  -15.9 °C 1027.0 in /  34774.2 hPa SW 8.0 mph /  12.9 km/h 12.9 mph /  20.8 km/h 88 % 0.0 in /  0 mm
10:17 5.2 °F /  -14.9 °C 3.4 °F /  -15.9 °C 1027.0 in /  34774.2 hPa SW 4.8 mph /  7.7 km/h 16.1 mph /  25.9 km/h 88 % 0.0 in /  0 mm
10:22 5.2 °F /  -14.9 °C 3.5 °F /  -15.8 °C 1027.0 in /  34774.2 hPa WNW 4.8 mph /  7.7 km/h 16.1 mph /  25.9 km/h 89 % 0.0 in /  0 mm
10:32 5.1 °F /  -14.9 °C 3.6 °F /  -15.8 °C 1027.0 in /  34774.2 hPa SW 4.8 mph /  7.7 km/h 17.7 mph /  28.5 km/h 90 % 0.0 in /  0 mm
10:42 5.1 °F /  -14.9 °C 3.6 °F /  -15.8 °C 1027.3 in /  34784.4 hPa SW 4.8 mph /  7.7 km/h 17.7 mph /  28.5 km/h 90 % 0.0 in /  0 mm
10:47 5.1 °F /  -14.9 °C 3.6 °F /  -15.8 °C 1027.0 in /  34774.2 hPa Calm   12.9 mph /  20.8 km/h 90 % 0.0 in /  0 mm
10:52 5.1 °F /  -14.9 °C 3.6 °F /  -15.8 °C 1027.0 in /  34774.2 hPa SW 6.4 mph /  10.3 km/h 17.7 mph /  28.5 km/h 90 % 0.0 in /  0 mm
10:57 5.1 °F /  -14.9 °C 3.6 °F /  -15.8 °C 1027.0 in /  34774.2 hPa WSW 4.8 mph /  7.7 km/h 17.7 mph /  28.5 km/h 90 % 0.0 in /  0 mm
11:02 5.2 °F /  -14.9 °C 3.7 °F /  -15.7 °C 1027.0 in /  34774.2 hPa SW 14.5 mph /  23.3 km/h 17.7 mph /  28.5 km/h 90 % 0.0 in /  0 mm
11:07 5.1 °F /  -14.9 °C 3.8 °F /  -15.7 °C 1027.0 in /  34774.2 hPa SSW 6.4 mph /  10.3 km/h 17.7 mph /  28.5 km/h 91 % 0.0 in /  0 mm
11:12 5.1 °F /  -14.9 °C 3.8 °F /  -15.7 °C 1027.0 in /  34774.2 hPa SW 12.9 mph /  20.8 km/h 17.7 mph /  28.5 km/h 91 % 0.0 in /  0 mm
11:17 4.9 °F /  -15.1 °C 3.6 °F /  -15.8 °C 1027.0 in /  34774.2 hPa SW 9.7 mph /  15.6 km/h 17.7 mph /  28.5 km/h 91 % 0.0 in /  0 mm
11:22 5.2 °F /  -14.9 °C 3.9 °F /  -15.6 °C 1027.0 in /  34774.2 hPa SSW 4.8 mph /  7.7 km/h 17.7 mph /  28.5 km/h 91 % 0.0 in /  0 mm
11:32 5.5 °F /  -14.7 °C 4.1 °F /  -15.5 °C 1027.0 in /  34774.2 hPa South 4.8 mph /  7.7 km/h 16.1 mph /  25.9 km/h 91 % 0.0 in /  0 mm
11:37 5.6 °F /  -14.7 °C 4.1 °F /  -15.5 °C 1027.0 in /  34774.2 hPa SW 11.3 mph /  18.2 km/h 17.7 mph /  28.5 km/h 90 % 0.0 in /  0 mm
11:42 5.8 °F /  -14.6 °C 4.4 °F /  -15.3 °C 1027.0 in /  34774.2 hPa SW 12.9 mph /  20.8 km/h 17.7 mph /  28.5 km/h 91 % 0.0 in /  0 mm
11:47 5.9 °F /  -14.5 °C 4.4 °F /  -15.3 °C 1027.0 in /  34774.2 hPa SW 11.3 mph /  18.2 km/h 17.7 mph /  28.5 km/h 90 % 0.0 in /  0 mm
11:52 5.8 °F /  -14.6 °C 4.3 °F /  -15.4 °C 1027.0 in /  34774.2 hPa SSW 4.8 mph /  7.7 km/h 17.7 mph /  28.5 km/h 90 % 0.0 in /  0 mm
11:57 5.9 °F /  -14.5 °C 4.4 °F /  -15.3 °C 1027.0 in /  34774.2 hPa SSW 3.2 mph /  5.1 km/h 17.7 mph /  28.5 km/h 90 % 0.0 in /  0 mm
12:02 5.9 °F /  -14.5 °C 4.4 °F /  -15.3 °C 1027.0 in /  34774.2 hPa SSW 6.4 mph /  10.3 km/h 17.7 mph /  28.5 km/h 90 % 0.0 in /  0 mm
12:07 5.9 °F /  -14.5 °C 4.4 °F /  -15.3 °C 1026.6 in /  34760.7 hPa SSW 8.0 mph /  12.9 km/h 17.7 mph /  28.5 km/h 90 % 0.0 in /  0 mm
12:12 6.1 °F /  -14.4 °C 4.6 °F /  -15.2 °C 1026.6 in /  34760.7 hPa SW 9.7 mph /  15.6 km/h 16.1 mph /  25.9 km/h 90 % 0.0 in /  0 mm
12:17 6.2 °F /  -14.3 °C 4.5 °F /  -15.3 °C 1027.0 in /  34774.2 hPa SSW 9.7 mph /  15.6 km/h 16.1 mph /  25.9 km/h 89 % 0.0 in /  0 mm
12:22 6.4 °F /  -14.2 °C 4.7 °F /  -15.2 °C 1027.0 in /  34774.2 hPa SW 9.7 mph /  15.6 km/h 16.1 mph /  25.9 km/h 89 % 0.0 in /  0 mm
12:27 6.6 °F /  -14.1 °C 4.9 °F /  -15.1 °C 1026.6 in /  34760.7 hPa SW 11.3 mph /  18.2 km/h 16.1 mph /  25.9 km/h 89 % 0.0 in /  0 mm
12:32 6.6 °F /  -14.1 °C 4.9 °F /  -15.1 °C 1026.6 in /  34760.7 hPa SW 9.7 mph /  15.6 km/h 16.1 mph /  25.9 km/h 89 % 0.0 in /  0 mm
12:42 6.9 °F /  -13.9 °C 5.5 °F /  -14.7 °C 1026.6 in /  34760.7 hPa SW 9.7 mph /  15.6 km/h 17.7 mph /  28.5 km/h 91 % 0.0 in /  0 mm
12:47 7.1 °F /  -13.8 °C 5.6 °F /  -14.7 °C 1026.6 in /  34760.7 hPa SW 8.0 mph /  12.9 km/h 14.5 mph /  23.3 km/h 90 % 0.0 in /  0 mm
12:52 7.2 °F /  -13.8 °C 5.8 °F /  -14.6 °C 1026.6 in /  34760.7 hPa SSW 4.8 mph /  7.7 km/h 14.5 mph /  23.3 km/h 91 % 0.0 in /  0 mm
12:57 7.4 °F /  -13.7 °C 5.9 °F /  -14.5 °C 1026.6 in /  34760.7 hPa WSW 9.7 mph /  15.6 km/h 16.1 mph /  25.9 km/h 90 % 0.0 in /  0 mm
13:02 7.5 °F /  -13.6 °C 6.0 °F /  -14.4 °C 1026.6 in /  34760.7 hPa WSW 6.4 mph /  10.3 km/h 16.1 mph /  25.9 km/h 90 % 0.0 in /  0 mm
13:07 7.6 °F /  -13.6 °C 5.9 °F /  -14.5 °C 1026.6 in /  34760.7 hPa SSW 11.3 mph /  18.2 km/h 17.7 mph /  28.5 km/h 89 % 0.0 in /  0 mm
13:12 7.6 °F /  -13.6 °C 6.1 °F /  -14.4 °C 1026.6 in /  34760.7 hPa WSW 11.3 mph /  18.2 km/h 17.7 mph /  28.5 km/h 90 % 0.0 in /  0 mm
13:17 7.7 °F /  -13.5 °C 6.2 °F /  -14.3 °C 1026.3 in /  34750.5 hPa SW 16.1 mph /  25.9 km/h 17.7 mph /  28.5 km/h 90 % 0.0 in /  0 mm
13:22 7.8 °F /  -13.4 °C 6.4 °F /  -14.2 °C 1026.3 in /  34750.5 hPa SW 11.3 mph /  18.2 km/h 16.1 mph /  25.9 km/h 91 % 0.0 in /  0 mm
13:32 7.9 °F /  -13.4 °C 6.4 °F /  -14.2 °C 1026.3 in /  34750.5 hPa SW 12.9 mph /  20.8 km/h 16.1 mph /  25.9 km/h 90 % 0.0 in /  0 mm
13:42 7.9 °F /  -13.4 °C 6.5 °F /  -14.2 °C 1026.3 in /  34750.5 hPa SW 9.7 mph /  15.6 km/h 19.3 mph /  31.1 km/h 91 % 0.0 in /  0 mm
13:47 8.0 °F /  -13.3 °C 6.6 °F /  -14.1 °C 1026.0 in /  34740.4 hPa SW 12.9 mph /  20.8 km/h 19.3 mph /  31.1 km/h 91 % 0.0 in /  0 mm
13:52 7.9 °F /  -13.4 °C 6.7 °F /  -14.1 °C 1026.0 in /  34740.4 hPa SW 11.3 mph /  18.2 km/h 19.3 mph /  31.1 km/h 92 % 0.0 in /  0 mm
13:57 8.0 °F /  -13.3 °C 6.9 °F /  -13.9 °C 1026.0 in /  34740.4 hPa SW 11.3 mph /  18.2 km/h 19.3 mph /  31.1 km/h 93 % 0.0 in /  0 mm
14:02 7.9 °F /  -13.4 °C 6.8 °F /  -14 °C 1026.0 in /  34740.4 hPa SSW 9.7 mph /  15.6 km/h 19.3 mph /  31.1 km/h 93 % 0.0 in /  0 mm
14:07 8.0 °F /  -13.3 °C 7.1 °F /  -13.8 °C 1026.0 in /  34740.4 hPa SSW 9.7 mph /  15.6 km/h 19.3 mph /  31.1 km/h 94 % 0.0 in /  0 mm
14:12 8.1 °F /  -13.3 °C 7.2 °F /  -13.8 °C 1026.0 in /  34740.4 hPa SW 14.5 mph /  23.3 km/h 19.3 mph /  31.1 km/h 94 % 0.0 in /  0 mm
14:17 8.1 °F /  -13.3 °C 7.2 °F /  -13.8 °C 1026.0 in /  34740.4 hPa SW 16.1 mph /  25.9 km/h 17.7 mph /  28.5 km/h 94 % 0.0 in /  0 mm
14:22 8.1 °F /  -13.3 °C 7.2 °F /  -13.8 °C 1026.0 in /  34740.4 hPa SW 14.5 mph /  23.3 km/h 19.3 mph /  31.1 km/h 94 % 0.0 in /  0 mm
14:27 8.2 °F /  -13.2 °C 7.3 °F /  -13.7 °C 1026.0 in /  34740.4 hPa SW 12.9 mph /  20.8 km/h 19.3 mph /  31.1 km/h 94 % 0.0 in /  0 mm
14:32 8.2 °F /  -13.2 °C 7.1 °F /  -13.8 °C 1026.0 in /  34740.4 hPa SW 6.4 mph /  10.3 km/h 19.3 mph /  31.1 km/h 93 % 0.0 in /  0 mm
14:37 8.2 °F /  -13.2 °C 7.1 °F /  -13.8 °C 1025.6 in /  34726.8 hPa SW 17.7 mph /  28.5 km/h 17.7 mph /  28.5 km/h 93 % 0.0 in /  0 mm
14:42 8.3 °F /  -13.2 °C 7.2 °F /  -13.8 °C 1025.6 in /  34726.8 hPa SW 14.5 mph /  23.3 km/h 17.7 mph /  28.5 km/h 93 % 0.0 in /  0 mm
14:47 8.3 °F /  -13.2 °C 7.2 °F /  -13.8 °C 1025.6 in /  34726.8 hPa SSW 4.8 mph /  7.7 km/h 19.3 mph /  31.1 km/h 93 % 0.0 in /  0 mm
14:57 8.4 °F /  -13.1 °C 7.5 °F /  -13.6 °C 1025.6 in /  34726.8 hPa SSW 11.3 mph /  18.2 km/h 19.3 mph /  31.1 km/h 94 % 0.0 in /  0 mm
15:02 8.5 °F /  -13.1 °C 7.6 °F /  -13.6 °C 1025.6 in /  34726.8 hPa SSW 9.7 mph /  15.6 km/h 19.3 mph /  31.1 km/h 94 % 0.0 in /  0 mm
15:12 8.6 °F /  -13 °C 7.7 °F /  -13.5 °C 1025.3 in /  34716.7 hPa West 9.7 mph /  15.6 km/h 16.1 mph /  25.9 km/h 94 % 0.0 in /  0 mm
15:17 8.5 °F /  -13.1 °C 7.7 °F /  -13.5 °C 1025.6 in /  34726.8 hPa SW 12.9 mph /  20.8 km/h 17.7 mph /  28.5 km/h 95 % 0.0 in /  0 mm
15:22 8.5 °F /  -13.1 °C 7.7 °F /  -13.5 °C 1025.6 in /  34726.8 hPa SW 11.3 mph /  18.2 km/h 17.7 mph /  28.5 km/h 95 % 0.0 in /  0 mm
15:27 8.5 °F /  -13.1 °C 7.7 °F /  -13.5 °C 1025.6 in /  34726.8 hPa SSW 4.8 mph /  7.7 km/h 16.1 mph /  25.9 km/h 95 % 0.0 in /  0 mm
15:32 8.5 °F /  -13.1 °C 7.7 °F /  -13.5 °C 1025.6 in /  34726.8 hPa SSW 11.3 mph /  18.2 km/h 16.1 mph /  25.9 km/h 95 % 0.0 in /  0 mm
15:37 8.5 °F /  -13.1 °C 7.7 °F /  -13.5 °C 1025.6 in /  34726.8 hPa South 6.4 mph /  10.3 km/h 12.9 mph /  20.8 km/h 95 % 0.0 in /  0 mm
15:42 8.5 °F /  -13.1 °C 7.9 °F /  -13.4 °C 1025.3 in /  34716.7 hPa SW 8.0 mph /  12.9 km/h 19.3 mph /  31.1 km/h 96 % 0.0 in /  0 mm
15:47 8.5 °F /  -13.1 °C 7.9 °F /  -13.4 °C 1025.3 in /  34716.7 hPa SW 8.0 mph /  12.9 km/h 19.3 mph /  31.1 km/h 96 % 0.0 in /  0 mm
15:52 8.5 °F /  -13.1 °C 7.9 °F /  -13.4 °C 1025.3 in /  34716.7 hPa SW 6.4 mph /  10.3 km/h 19.3 mph /  31.1 km/h 96 % 0.0 in /  0 mm
15:57 8.6 °F /  -13 °C 8.0 °F /  -13.3 °C 1025.3 in /  34716.7 hPa SW 9.7 mph /  15.6 km/h 16.1 mph /  25.9 km/h 96 % 0.0 in /  0 mm
16:07 8.6 °F /  -13 °C 8.0 °F /  -13.3 °C 1025.3 in /  34716.7 hPa SW 8.0 mph /  12.9 km/h 19.3 mph /  31.1 km/h 96 % 0.0 in /  0 mm
16:12 8.6 °F /  -13 °C 8.0 °F /  -13.3 °C 1025.3 in /  34716.7 hPa WSW 12.9 mph /  20.8 km/h 19.3 mph /  31.1 km/h 96 % 0.0 in /  0 mm
16:17 8.6 °F /  -13 °C 8.0 °F /  -13.3 °C 1025.3 in /  34716.7 hPa SSW 11.3 mph /  18.2 km/h 19.3 mph /  31.1 km/h 96 % 0.0 in /  0 mm
16:22 8.6 °F /  -13 °C 8.0 °F /  -13.3 °C 1024.9 in /  34703.1 hPa SW 17.7 mph /  28.5 km/h 29.0 mph /  46.7 km/h 96 % 0.0 in /  0 mm
16:27 8.6 °F /  -13 °C 8.0 °F /  -13.3 °C 1024.9 in /  34703.1 hPa West 6.4 mph /  10.3 km/h 29.0 mph /  46.7 km/h 96 % 0.0 in /  0 mm
16:32 8.6 °F /  -13 °C 8.0 °F /  -13.3 °C 1024.9 in /  34703.1 hPa West 12.9 mph /  20.8 km/h 29.0 mph /  46.7 km/h 96 % 0.0 in /  0 mm
16:37 8.6 °F /  -13 °C 8.0 °F /  -13.3 °C 1025.3 in /  34716.7 hPa WSW 6.4 mph /  10.3 km/h 24.1 mph /  38.8 km/h 96 % 0.0 in /  0 mm
16:42 8.6 °F /  -13 °C 8.0 °F /  -13.3 °C 1025.3 in /  34716.7 hPa West 14.5 mph /  23.3 km/h 22.5 mph /  36.2 km/h 96 % 0.0 in /  0 mm
16:47 8.6 °F /  -13 °C 8.0 °F /  -13.3 °C 1024.9 in /  34703.1 hPa WSW 6.4 mph /  10.3 km/h 19.3 mph /  31.1 km/h 96 % 0.0 in /  0 mm
16:52 8.6 °F /  -13 °C 8.0 °F /  -13.3 °C 1024.9 in /  34703.1 hPa WSW 6.4 mph /  10.3 km/h 22.5 mph /  36.2 km/h 96 % 0.0 in /  0 mm
16:57 8.7 °F /  -12.9 °C 8.1 °F /  -13.3 °C 1024.9 in /  34703.1 hPa WSW 11.3 mph /  18.2 km/h 22.5 mph /  36.2 km/h 96 % 0.0 in /  0 mm
17:02 8.7 °F /  -12.9 °C 8.1 °F /  -13.3 °C 1024.9 in /  34703.1 hPa SW 6.4 mph /  10.3 km/h 22.5 mph /  36.2 km/h 96 % 0.0 in /  0 mm
17:12 8.7 °F /  -12.9 °C 8.1 °F /  -13.3 °C 1024.9 in /  34703.1 hPa SW 3.2 mph /  5.1 km/h 24.1 mph /  38.8 km/h 96 % 0.0 in /  0 mm
17:17 8.7 °F /  -12.9 °C 8.1 °F /  -13.3 °C 1024.9 in /  34703.1 hPa West 14.5 mph /  23.3 km/h 24.1 mph /  38.8 km/h 96 % 0.0 in /  0 mm
17:22 8.7 °F /  -12.9 °C 8.1 °F /  -13.3 °C 1024.9 in /  34703.1 hPa WSW 9.7 mph /  15.6 km/h 20.9 mph /  33.6 km/h 96 % 0.0 in /  0 mm
17:27 8.7 °F /  -12.9 °C 8.1 °F /  -13.3 °C 1024.9 in /  34703.1 hPa South 4.8 mph /  7.7 km/h 20.9 mph /  33.6 km/h 96 % 0.0 in /  0 mm
17:32 8.7 °F /  -12.9 °C 8.1 °F /  -13.3 °C 1024.9 in /  34703.1 hPa WSW 12.9 mph /  20.8 km/h 20.9 mph /  33.6 km/h 96 % 0.0 in /  0 mm
17:37 8.7 °F /  -12.9 °C 8.1 °F /  -13.3 °C 1024.9 in /  34703.1 hPa SW 11.3 mph /  18.2 km/h 20.9 mph /  33.6 km/h 96 % 0.0 in /  0 mm
17:42 8.7 °F /  -12.9 °C 8.1 °F /  -13.3 °C 1024.9 in /  34703.1 hPa SW 9.7 mph /  15.6 km/h 20.9 mph /  33.6 km/h 96 % 0.0 in /  0 mm
17:47 8.7 °F /  -12.9 °C 8.1 °F /  -13.3 °C 1024.9 in /  34703.1 hPa SW 8.0 mph /  12.9 km/h 27.4 mph /  44.1 km/h 96 % 0.0 in /  0 mm
17:52 8.7 °F /  -12.9 °C 8.1 °F /  -13.3 °C 1024.9 in /  34703.1 hPa SSW 3.2 mph /  5.1 km/h 27.4 mph /  44.1 km/h 96 % 0.0 in /  0 mm
17:57 8.7 °F /  -12.9 °C 8.1 °F /  -13.3 °C 1024.9 in /  34703.1 hPa SSW 4.8 mph /  7.7 km/h 27.4 mph /  44.1 km/h 96 % 0.0 in /  0 mm
18:02 8.7 °F /  -12.9 °C 8.1 °F /  -13.3 °C 1024.9 in /  34703.1 hPa West 6.4 mph /  10.3 km/h 27.4 mph /  44.1 km/h 96 % 0.0 in /  0 mm
18:07 8.7 °F /  -12.9 °C 8.1 °F /  -13.3 °C 1025.3 in /  34716.7 hPa SW 11.3 mph /  18.2 km/h 20.9 mph /  33.6 km/h 96 % 0.0 in /  0 mm
18:12 8.7 °F /  -12.9 °C 8.1 °F /  -13.3 °C 1024.9 in /  34703.1 hPa SW 4.8 mph /  7.7 km/h 20.9 mph /  33.6 km/h 96 % 0.0 in /  0 mm
18:17 8.7 °F /  -12.9 °C 8.1 °F /  -13.3 °C 1024.9 in /  34703.1 hPa SW 9.7 mph /  15.6 km/h 20.9 mph /  33.6 km/h 96 % 0.0 in /  0 mm
18:22 8.7 °F /  -12.9 °C 8.1 °F /  -13.3 °C 1025.3 in /  34716.7 hPa SW 8.0 mph /  12.9 km/h 19.3 mph /  31.1 km/h 96 % 0.0 in /  0 mm
18:27 8.7 °F /  -12.9 °C 8.1 °F /  -13.3 °C 1024.9 in /  34703.1 hPa SW 11.3 mph /  18.2 km/h 19.3 mph /  31.1 km/h 96 % 0.0 in /  0 mm
18:32 8.7 °F /  -12.9 °C 8.1 °F /  -13.3 °C 1024.9 in /  34703.1 hPa SW 16.1 mph /  25.9 km/h 19.3 mph /  31.1 km/h 96 % 0.0 in /  0 mm
18:42 8.8 °F /  -12.9 °C 8.2 °F /  -13.2 °C 1024.9 in /  34703.1 hPa WSW 14.5 mph /  23.3 km/h 20.9 mph /  33.6 km/h 96 % 0.0 in /  0 mm
18:47 8.8 °F /  -12.9 °C 8.2 °F /  -13.2 °C 1025.3 in /  34716.7 hPa WSW 12.9 mph /  20.8 km/h 20.9 mph /  33.6 km/h 96 % 0.0 in /  0 mm
18:52 8.8 °F /  -12.9 °C 8.2 °F /  -13.2 °C 1025.3 in /  34716.7 hPa WSW 9.7 mph /  15.6 km/h 20.9 mph /  33.6 km/h 96 % 0.0 in /  0 mm
18:57 8.8 °F /  -12.9 °C 8.2 °F /  -13.2 °C 1025.3 in /  34716.7 hPa SSW 8.0 mph /  12.9 km/h 20.9 mph /  33.6 km/h 96 % 0.0 in /  0 mm
19:02 8.7 °F /  -12.9 °C 8.1 °F /  -13.3 °C 1025.3 in /  34716.7 hPa SW 8.0 mph /  12.9 km/h 20.9 mph /  33.6 km/h 96 % 0.0 in /  0 mm
19:07 8.7 °F /  -12.9 °C 8.3 °F /  -13.2 °C 1025.3 in /  34716.7 hPa SSW 4.8 mph /  7.7 km/h 17.7 mph /  28.5 km/h 97 % 0.0 in /  0 mm
19:12 8.7 °F /  -12.9 °C 8.3 °F /  -13.2 °C 1025.3 in /  34716.7 hPa SSW 1.6 mph /  2.6 km/h 16.1 mph /  25.9 km/h 97 % 0.0 in /  0 mm
19:17 8.7 °F /  -12.9 °C 8.3 °F /  -13.2 °C 1025.3 in /  34716.7 hPa West 4.8 mph /  7.7 km/h 16.1 mph /  25.9 km/h 97 % 0.0 in /  0 mm
19:22 8.7 °F /  -12.9 °C 8.3 °F /  -13.2 °C 1025.3 in /  34716.7 hPa WSW 4.8 mph /  7.7 km/h 11.3 mph /  18.2 km/h 97 % 0.0 in /  0 mm
19:27 8.7 °F /  -12.9 °C 8.3 °F /  -13.2 °C 1025.3 in /  34716.7 hPa SW 6.4 mph /  10.3 km/h 12.9 mph /  20.8 km/h 97 % 0.0 in /  0 mm
19:32 8.7 °F /  -12.9 °C 8.3 °F /  -13.2 °C 1025.3 in /  34716.7 hPa WSW 16.1 mph /  25.9 km/h 16.1 mph /  25.9 km/h 97 % 0.3 in /  7.62 mm
19:37 8.7 °F /  -12.9 °C 8.3 °F /  -13.2 °C 1025.3 in /  34716.7 hPa West 6.4 mph /  10.3 km/h 17.7 mph /  28.5 km/h 97 % 0.3 in /  7.62 mm
19:42 8.7 °F /  -12.9 °C 8.3 °F /  -13.2 °C 1025.3 in /  34716.7 hPa SW 4.8 mph /  7.7 km/h 19.3 mph /  31.1 km/h 97 % 0.3 in /  7.62 mm
19:47 8.7 °F /  -12.9 °C 8.3 °F /  -13.2 °C 1025.3 in /  34716.7 hPa SW 4.8 mph /  7.7 km/h 19.3 mph /  31.1 km/h 97 % 0.3 in /  7.62 mm
19:52 8.7 °F /  -12.9 °C 8.3 °F /  -13.2 °C 1025.3 in /  34716.7 hPa WSW 6.4 mph /  10.3 km/h 19.3 mph /  31.1 km/h 97 % 0.3 in /  7.62 mm
19:57 8.7 °F /  -12.9 °C 8.3 °F /  -13.2 °C 1025.3 in /  34716.7 hPa SW 17.7 mph /  28.5 km/h 17.7 mph /  28.5 km/h 97 % 0.3 in /  7.62 mm
20:02 8.7 °F /  -12.9 °C 8.3 °F /  -13.2 °C 1025.3 in /  34716.7 hPa SW 3.2 mph /  5.1 km/h 12.9 mph /  20.8 km/h 97 % 0.3 in /  7.62 mm
20:07 8.7 °F /  -12.9 °C 8.3 °F /  -13.2 °C 1025.3 in /  34716.7 hPa WSW 9.7 mph /  15.6 km/h 17.7 mph /  28.5 km/h 97 % 0.3 in /  7.62 mm
20:12 8.7 °F /  -12.9 °C 8.3 °F /  -13.2 °C 1025.3 in /  34716.7 hPa WSW 11.3 mph /  18.2 km/h 17.7 mph /  28.5 km/h 97 % 0.3 in /  7.62 mm
20:17 8.7 °F /  -12.9 °C 8.3 °F /  -13.2 °C 1025.6 in /  34726.8 hPa West 3.2 mph /  5.1 km/h 17.7 mph /  28.5 km/h 97 % 0.3 in /  7.62 mm
20:22 8.7 °F /  -12.9 °C 8.3 °F /  -13.2 °C 1025.3 in /  34716.7 hPa SW 3.2 mph /  5.1 km/h 17.7 mph /  28.5 km/h 97 % 0.3 in /  7.62 mm
20:27 8.7 °F /  -12.9 °C 8.1 °F /  -13.3 °C 1025.3 in /  34716.7 hPa West 1.6 mph /  2.6 km/h 17.7 mph /  28.5 km/h 96 % 0.3 in /  7.62 mm
20:32 8.7 °F /  -12.9 °C 8.1 °F /  -13.3 °C 1025.3 in /  34716.7 hPa West 8.0 mph /  12.9 km/h 17.7 mph /  28.5 km/h 96 % 0.0 in /  0 mm
20:37 8.7 °F /  -12.9 °C 8.1 °F /  -13.3 °C 1025.3 in /  34716.7 hPa WSW 9.7 mph /  15.6 km/h 17.7 mph /  28.5 km/h 96 % 0.0 in /  0 mm
20:42 8.7 °F /  -12.9 °C 8.1 °F /  -13.3 °C 1025.3 in /  34716.7 hPa WSW 9.7 mph /  15.6 km/h 17.7 mph /  28.5 km/h 96 % 0.0 in /  0 mm
20:47 8.7 °F /  -12.9 °C 8.1 °F /  -13.3 °C 1025.3 in /  34716.7 hPa West 9.7 mph /  15.6 km/h 17.7 mph /  28.5 km/h 96 % 0.0 in /  0 mm
20:52 8.7 °F /  -12.9 °C 8.1 °F /  -13.3 °C 1025.3 in /  34716.7 hPa WSW 8.0 mph /  12.9 km/h 17.7 mph /  28.5 km/h 96 % 0.0 in /  0 mm
20:57 8.7 °F /  -12.9 °C 8.1 °F /  -13.3 °C 1025.3 in /  34716.7 hPa WSW 12.9 mph /  20.8 km/h 16.1 mph /  25.9 km/h 96 % 0.0 in /  0 mm
21:02 8.7 °F /  -12.9 °C 8.1 °F /  -13.3 °C 1025.3 in /  34716.7 hPa WSW 8.0 mph /  12.9 km/h 16.1 mph /  25.9 km/h 96 % 0.0 in /  0 mm
21:12 8.7 °F /  -12.9 °C 8.1 °F /  -13.3 °C 1025.3 in /  34716.7 hPa SW 11.3 mph /  18.2 km/h 24.1 mph /  38.8 km/h 96 % 0.0 in /  0 mm
21:17 8.7 °F /  -12.9 °C 8.1 °F /  -13.3 °C 1025.3 in /  34716.7 hPa SW 6.4 mph /  10.3 km/h 24.1 mph /  38.8 km/h 96 % 0.0 in /  0 mm
21:22 8.7 °F /  -12.9 °C 8.1 °F /  -13.3 °C 1025.3 in /  34716.7 hPa WSW 4.8 mph /  7.7 km/h 24.1 mph /  38.8 km/h 96 % 0.0 in /  0 mm
21:27 8.7 °F /  -12.9 °C 8.1 °F /  -13.3 °C 1025.6 in /  34726.8 hPa South 3.2 mph /  5.1 km/h 22.5 mph /  36.2 km/h 96 % 0.0 in /  0 mm
21:32 8.6 °F /  -13 °C 8.0 °F /  -13.3 °C 1025.3 in /  34716.7 hPa SW 8.0 mph /  12.9 km/h 22.5 mph /  36.2 km/h 96 % 0.0 in /  0 mm
21:37 8.6 °F /  -13 °C 8.0 °F /  -13.3 °C 1025.3 in /  34716.7 hPa SW 16.1 mph /  25.9 km/h 16.1 mph /  25.9 km/h 96 % 0.0 in /  0 mm
21:42 8.6 °F /  -13 °C 8.2 °F /  -13.2 °C 1025.6 in /  34726.8 hPa SW 1.6 mph /  2.6 km/h 19.3 mph /  31.1 km/h 97 % 0.0 in /  0 mm
21:47 8.6 °F /  -13 °C 8.2 °F /  -13.2 °C 1025.6 in /  34726.8 hPa SW 4.8 mph /  7.7 km/h 19.3 mph /  31.1 km/h 97 % 0.0 in /  0 mm
21:52 8.6 °F /  -13 °C 8.2 °F /  -13.2 °C 1025.6 in /  34726.8 hPa West 8.0 mph /  12.9 km/h 19.3 mph /  31.1 km/h 97 % 0.0 in /  0 mm
21:57 8.6 °F /  -13 °C 8.2 °F /  -13.2 °C 1025.6 in /  34726.8 hPa Calm   17.7 mph /  28.5 km/h 97 % 0.0 in /  0 mm
22:02 8.6 °F /  -13 °C 8.2 °F /  -13.2 °C 1025.6 in /  34726.8 hPa SW 6.4 mph /  10.3 km/h 17.7 mph /  28.5 km/h 97 % 0.0 in /  0 mm
22:12 8.6 °F /  -13 °C 8.2 °F /  -13.2 °C 1025.6 in /  34726.8 hPa South 3.2 mph /  5.1 km/h 12.9 mph /  20.8 km/h 97 % 0.0 in /  0 mm
22:17 8.6 °F /  -13 °C 8.2 °F /  -13.2 °C 1025.6 in /  34726.8 hPa SW 14.5 mph /  23.3 km/h 14.5 mph /  23.3 km/h 97 % 0.0 in /  0 mm
22:22 8.6 °F /  -13 °C 8.2 °F /  -13.2 °C 1025.6 in /  34726.8 hPa WSW 1.6 mph /  2.6 km/h 14.5 mph /  23.3 km/h 97 % 0.0 in /  0 mm
22:27 8.6 °F /  -13 °C 8.2 °F /  -13.2 °C 1025.6 in /  34726.8 hPa WNW 4.8 mph /  7.7 km/h 14.5 mph /  23.3 km/h 97 % 0.0 in /  0 mm
22:32 8.6 °F /  -13 °C 8.2 °F /  -13.2 °C 1025.6 in /  34726.8 hPa SW 11.3 mph /  18.2 km/h 14.5 mph /  23.3 km/h 97 % 0.0 in /  0 mm
22:37 8.6 °F /  -13 °C 8.2 °F /  -13.2 °C 1025.6 in /  34726.8 hPa WSW 6.4 mph /  10.3 km/h 19.3 mph /  31.1 km/h 97 % 0.0 in /  0 mm
22:42 8.7 °F /  -12.9 °C 8.3 °F /  -13.2 °C 1025.6 in /  34726.8 hPa SW 3.2 mph /  5.1 km/h 20.9 mph /  33.6 km/h 97 % 0.0 in /  0 mm
22:47 8.6 °F /  -13 °C 8.2 °F /  -13.2 °C 1025.6 in /  34726.8 hPa WSW 6.4 mph /  10.3 km/h 20.9 mph /  33.6 km/h 97 % 0.0 in /  0 mm
22:52 8.6 °F /  -13 °C 8.2 °F /  -13.2 °C 1025.6 in /  34726.8 hPa West 3.2 mph /  5.1 km/h 19.3 mph /  31.1 km/h 97 % 0.0 in /  0 mm
22:57 8.7 °F /  -12.9 °C 8.3 °F /  -13.2 °C 1025.6 in /  34726.8 hPa WSW 9.7 mph /  15.6 km/h 19.3 mph /  31.1 km/h 97 % 0.0 in /  0 mm
23:02 8.7 °F /  -12.9 °C 8.3 °F /  -13.2 °C 1025.6 in /  34726.8 hPa WSW 8.0 mph /  12.9 km/h 19.3 mph /  31.1 km/h 97 % 0.0 in /  0 mm
23:07 8.7 °F /  -12.9 °C 8.3 °F /  -13.2 °C 1025.6 in /  34726.8 hPa WSW 9.7 mph /  15.6 km/h 16.1 mph /  25.9 km/h 97 % 0.0 in /  0 mm
23:12 8.7 °F /  -12.9 °C 8.3 °F /  -13.2 °C 1025.6 in /  34726.8 hPa WSW 4.8 mph /  7.7 km/h 16.1 mph /  25.9 km/h 97 % 0.0 in /  0 mm
23:17 8.7 °F /  -12.9 °C 8.3 °F /  -13.2 °C 1025.6 in /  34726.8 hPa SW 3.2 mph /  5.1 km/h 14.5 mph /  23.3 km/h 97 % 0.0 in /  0 mm
23:22 8.7 °F /  -12.9 °C 8.3 °F /  -13.2 °C 1025.6 in /  34726.8 hPa WSW 8.0 mph /  12.9 km/h 14.5 mph /  23.3 km/h 97 % 0.0 in /  0 mm
23:27 8.7 °F /  -12.9 °C 8.3 °F /  -13.2 °C 1025.6 in /  34726.8 hPa WSW 4.8 mph /  7.7 km/h 14.5 mph /  23.3 km/h 97 % 0.0 in /  0 mm
23:32 8.7 °F /  -12.9 °C 8.3 °F /  -13.2 °C 1025.3 in /  34716.7 hPa SSW 4.8 mph /  7.7 km/h 14.5 mph /  23.3 km/h 97 % 0.0 in /  0 mm
23:37 8.7 °F /  -12.9 °C 8.3 °F /  -13.2 °C 1025.3 in /  34716.7 hPa SSW 3.2 mph /  5.1 km/h 11.3 mph /  18.2 km/h 97 % 0.0 in /  0 mm
23:42 8.7 °F /  -12.9 °C 8.3 °F /  -13.2 °C 1025.3 in /  34716.7 hPa SW 4.8 mph /  7.7 km/h 11.3 mph /  18.2 km/h 97 % 0.0 in /  0 mm
23:47 8.7 °F /  -12.9 °C 8.3 °F /  -13.2 °C 1025.3 in /  34716.7 hPa WSW 3.2 mph /  5.1 km/h 9.7 mph /  15.6 km/h 97 % 0.0 in /  0 mm
23:52 8.7 °F /  -12.9 °C 8.3 °F /  -13.2 °C 1025.3 in /  34716.7 hPa SW 4.8 mph /  7.7 km/h 9.7 mph /  15.6 km/h 97 % 0.0 in /  0 mm
Meteo18
Compliments of Weather Underground - 4 mb

Script developed by  Jim McMurry - jmcmurry@mwt.net Adapted for the template by  Wim van der Kuil - Leuven-Template.eu

You find our weather info also at:

European Weather Network

Weather Underground

Equipment we use:

Weather-station
Davis Vue

Weather-program
Meteobridge

Weather-server
Raspberry PI 2 B+

Provider
1 and 1

Davis Vue

Meteobridge

Raspberry PI 2 B+

1 and 1